Current Weather at Greece

Name ICAO Metar Transition Altitude Transition Level QNH Active Runway Elevation
ANDRAVIDA AB LGAD LGAD 210250Z 00000KT 9999 FEW020 17/16 Q1016 8000 FL90 1016 34 55
DIMOKRITOS LGAL LGAL 210250Z 07005KT CAVOK 21/16 Q1017 4000 FL50 1017 07 10
ELEFTHERIOS VENIZELOS INTL LGAV LGAV 210250Z 02014KT CAVOK 25/10 Q1016 NOSIG 9000 FL100 1016 03L 255
NEA ANCHIALOS LGBL LGBL 210250Z 27004KT CAVOK 19/12 Q1018 BLU 9000 FL100 1018 08 83
ELEFSIS LGEL LGEL 210250Z 34014KT CAVOK 26/11 Q1014 9000 FL100 1014 36 21
NIKOS KAZANTZAKIS LGIR LGIR 210250Z 28013KT 9999 FEW025 24/18 Q1013 NOSIG 6000 FL75 1013 09 78
KEFALLINIA LGKF LGKF 210250Z 02004KT CAVOK 22/20 Q1016 8000 FL90 1016 32 50
KALAMATA LGKL LGKL 210250Z 02009KT CAVOK 20/11 Q1015 9000 FL100 1015 35L 16
IPPOKRATIS LGKO LGKO 210250Z 35013KT CAVOK 24/19 Q1010 5000 FL65 1010 32 373
KARPATHOS LGKP LGKP 210250Z AUTO 29025KT //// // ////// 24/20 Q1009 RE// 6000 FL75 1009 30 62
IOANNIS KAPODISTRIAS LGKR LGKR 210250Z 27002KT CAVOK 21/18 Q1016 NOSIG 5000 FL60 1016 35 6
MEGAS ALEXANDROS LGKV LGKV 210250Z 00000KT CAVOK 20/17 Q1017 6000 FL70 1017 05R 9
FILIPPOS LGKZ LGKZ 210250Z AUTO 35005KT //// // ////// 17/12 Q1021 RE// 9000 FL100 1021 32 1968
IFAISTOS LGLM LGLM 210250Z 03008KT CAVOK 23/19 Q1016 4000 FL50 1016 04R 13
LARISSA LGLR LGLR 210250Z 00000KT 9999 FEW030 17/14 Q1018 BLU 11000 FL120 1018 08R 239
MIKONOS LGMK LGMK 210250Z 36015KT CAVOK 22/11 Q1013 9000 FL105 1013 34 388
ODYSSEAS ELYTIS LGMT LGMT 210250Z 32006KT 280V040 CAVOK 23/17 Q1015 4500 FL55 1015 32 21
NAXOS LGNX LGNX 210250Z 36007KT 9999 FEW025 24/22 Q1013 0 FL15 1013 36 11
PAROS LGPA LGPA 210250Z 34012KT CAVOK 23/20 Q1013 4000 FL55 1013 35 86
AKTION LGPZ LGPZ 210250Z 05005KT CAVOK 22/19 Q1017 BLU 8000 FL90 1017 07L 9
DIAGORAS LGRP LGRP 210250Z 24007KT CAVOK 25/19 Q1008 NOSIG 6000 FL75 1008 07 18
ARAXOS LGRX LGRX 210250Z 01005KT CAVOK 23/16 Q1016 BLU 8000 FL90 1016 36L 46
IOANNIS DASKALOGIANNIS LGSA LGSA 210250Z 28004KT 9999 FEW025 21/19 Q1015 11000 FL120 1015 29 490
ALEXANDROS PAPADIAMANDIS LGSK LGSK 210250Z 00000KT CAVOK 24/19 Q1017 5000 FL60 1017 02 9
ARISTARCHOS OF SAMOS LGSM LGSM 210250Z 06010KT CAVOK 26/18 Q1012 7000 FL85 1012 09 19
DIMITRIOS VIKELAS LGSO LGSO 210250Z AUTO 01020KT //// -RA ////// 24/18 Q1014 RE// 9000 FL100 1014 36 236
SANTORINI LGSR LGSR 210220Z 30010KT 9999 FEW025 24/19 Q1013 5000 FL65 1013 34L 57
SKIROS AB LGSY LGSY 210250Z 36006KT CAVOK 23/20 Q1016 BLU 8000 FL90 1016 35 39
TANAGRA LGTG LGTG 210250Z 28005KT CAVOK 19/10 Q1017 BLU 9000 FL100 1017 28C 453
MAKEDONIA LGTS LGTS 210250Z 00000KT CAVOK 21/16 Q1018 NOSIG 6000 FL70 1018 28 19
DIONISIOS SOLOMOS LGZA LGZA 210250Z 00000KT CAVOK 23/18 Q1017 8000 FL90 1017